PWSweather.com
Personal Weather Stations
Station Observations
OINOFYTA
Oinofyta Greece, OinofytaGR 320 11

Oinofyta GreeceOinofytaGR 320 11

Lat: 38.3080648, Lon: 23.6391172

Elevation: 354

Station Type: ProWeatherStation 1080

http://oinofytaweather.gr/

Latest ConditionsUpdated 2:30:01 PM GMT+02:02 Tuesday, Oct 22, 2019
Currently Today's Max Today's Min Today's Average
Temperature 76.5°F24.7°C 77.2°F25.1°C 57.7°F14.3°C 65.7°F18.7°C
Dew Point 55.9°F13.3°C 62.7°F17.1°C 54.3°F12.4°C 57.6°F14.2°C
Winds 9.4 mph N15.1 kmh N 10.9 mph -17.5 kmh - - 4.3 mph 6.9 kmh
Wind Gusts 22.1 mph35.6 kmh 22.1 mph35.6 kmh - -
Humidity 49% 94% 48% 78%
Pressure 30.19 in1022.4 mb 30.24 in1024.0 mb 30.19 in1022.4 mb -
Hour Temp Dew Point Humidity Winds Wind Gusts Pressure Precip Precip Rate Daily Precip Total
02:30 PM 76.5°F24.7°C 55.9°F13.3°C 49% 9.4 mph N15.1 kmh N 22.1 mph35.6 kmh 30.19 in1022.4 mb 0.00 in0.0 mm 0.00 in0.0 mm 0.00 in0.0 mm
02:25 PM 76.8°F24.9°C 56.2°F13.4°C 49% 9.2 mph N14.8 kmh N 22.1 mph35.6 kmh 30.19 in1022.4 mb 0.00 in0.0 mm 0.00 in0.0 mm 0.00 in0.0 mm
02:20 PM 76.8°F24.9°C 56.2°F13.4°C 49% 9.5 mph N15.3 kmh N 20.6 mph33.2 kmh 30.19 in1022.4 mb 0.00 in0.0 mm 0.00 in0.0 mm 0.00 in0.0 mm
02:15 PM 76.8°F24.9°C 56.2°F13.4°C 49% 9.3 mph N15.0 kmh N 20.6 mph33.2 kmh 30.19 in1022.4 mb 0.00 in0.0 mm 0.00 in0.0 mm 0.00 in0.0 mm
02:10 PM 76.8°F24.9°C 55.7°F13.2°C 48% 7.9 mph NNW12.7 kmh NNW 19.7 mph31.7 kmh 30.20 in1022.7 mb 0.00 in0.0 mm 0.00 in0.0 mm 0.00 in0.0 mm
02:05 PM 76.8°F24.9°C 56.2°F13.4°C 49% 7.3 mph NNW11.7 kmh NNW 17.4 mph28.0 kmh 30.20 in1022.7 mb 0.00 in0.0 mm 0.00 in0.0 mm 0.00 in0.0 mm
02:00 PM 76.5°F24.7°C 57.0°F13.9°C 51% 8.2 mph NNE13.2 kmh NNE 16.8 mph27.0 kmh 30.20 in1022.7 mb 0.00 in0.0 mm 0.00 in0.0 mm 0.00 in0.0 mm
01:55 PM 76.3°F24.6°C 56.9°F13.8°C 51% 9.0 mph NNE14.5 kmh NNE 17.4 mph28.0 kmh 30.20 in1022.7 mb 0.00 in0.0 mm 0.00 in0.0 mm 0.00 in0.0 mm
01:50 PM 76.5°F24.7°C 55.9°F13.3°C 49% 8.8 mph NNE14.2 kmh NNE 17.4 mph28.0 kmh 30.20 in1022.7 mb 0.00 in0.0 mm 0.00 in0.0 mm 0.00 in0.0 mm
01:45 PM 76.3°F24.6°C 56.3°F13.5°C 50% 8.4 mph NNE13.5 kmh NNE 19.7 mph31.7 kmh 30.20 in1022.7 mb 0.00 in0.0 mm 0.00 in0.0 mm 0.00 in0.0 mm
01:40 PM 76.6°F24.8°C 56.6°F13.7°C 50% 8.2 mph NNE13.2 kmh NNE 19.7 mph31.7 kmh 30.20 in1022.7 mb 0.00 in0.0 mm 0.00 in0.0 mm 0.00 in0.0 mm
01:35 PM 76.6°F24.8°C 57.2°F14.0°C 51% 7.9 mph N12.7 kmh N 17.4 mph28.0 kmh 30.21 in1023.0 mb 0.00 in0.0 mm 0.00 in0.0 mm 0.00 in0.0 mm
01:30 PM 76.6°F24.8°C 57.2°F14.0°C 51% 8.1 mph N13.0 kmh N 19.7 mph31.7 kmh 30.21 in1023.0 mb 0.00 in0.0 mm 0.00 in0.0 mm 0.00 in0.0 mm
01:25 PM 76.6°F24.8°C 57.7°F14.3°C 52% 8.8 mph N14.2 kmh N 19.7 mph31.7 kmh 30.21 in1023.0 mb 0.00 in0.0 mm 0.00 in0.0 mm 0.00 in0.0 mm
01:20 PM 76.5°F24.7°C 57.0°F13.9°C 51% 9.3 mph N15.0 kmh N 19.7 mph31.7 kmh 30.21 in1023.0 mb 0.00 in0.0 mm 0.00 in0.0 mm 0.00 in0.0 mm
01:15 PM 76.5°F24.7°C 57.0°F13.9°C 51% 8.5 mph N13.7 kmh N 19.0 mph30.6 kmh 30.21 in1023.0 mb 0.00 in0.0 mm 0.00 in0.0 mm 0.00 in0.0 mm
01:10 PM 76.5°F24.7°C 57.6°F14.2°C 52% 8.4 mph N13.5 kmh N 16.8 mph27.0 kmh 30.21 in1023.0 mb 0.00 in0.0 mm 0.00 in0.0 mm 0.00 in0.0 mm
01:05 PM 76.1°F24.5°C 56.7°F13.7°C 51% 9.2 mph NNE14.8 kmh NNE 19.7 mph31.7 kmh 30.21 in1023.0 mb 0.00 in0.0 mm 0.00 in0.0 mm 0.00 in0.0 mm
01:00 PM 76.5°F24.7°C 57.0°F13.9°C 51% 8.3 mph NE13.4 kmh NE 20.6 mph33.2 kmh 30.21 in1023.0 mb 0.00 in0.0 mm 0.00 in0.0 mm 0.00 in0.0 mm
12:55 PM 76.6°F24.8°C 56.6°F13.7°C 50% 9.3 mph N15.0 kmh N 20.6 mph33.2 kmh 30.22 in1023.4 mb 0.00 in0.0 mm 0.00 in0.0 mm 0.00 in0.0 mm
12:50 PM 76.3°F24.6°C 56.3°F13.5°C 50% 10.9 mph N17.5 kmh N 21.3 mph34.3 kmh 30.22 in1023.4 mb 0.00 in0.0 mm 0.00 in0.0 mm 0.00 in0.0 mm
12:45 PM 76.5°F24.7°C 55.9°F13.3°C 49% 10.4 mph N16.7 kmh N 21.3 mph34.3 kmh 30.22 in1023.4 mb 0.00 in0.0 mm 0.00 in0.0 mm 0.00 in0.0 mm
12:40 PM 77.0°F25.0°C 57.0°F13.9°C 50% 9.1 mph N14.6 kmh N 18.3 mph29.5 kmh 30.22 in1023.4 mb 0.00 in0.0 mm 0.00 in0.0 mm 0.00 in0.0 mm
12:35 PM 77.0°F25.0°C 57.5°F14.2°C 51% 9.3 mph NE15.0 kmh NE 20.6 mph33.2 kmh 30.21 in1023.0 mb 0.00 in0.0 mm 0.00 in0.0 mm 0.00 in0.0 mm
12:30 PM 76.8°F24.9°C 56.8°F13.8°C 50% 10.2 mph NNE16.4 kmh NNE 20.6 mph33.2 kmh 30.21 in1023.0 mb 0.00 in0.0 mm 0.00 in0.0 mm 0.00 in0.0 mm
12:25 PM 77.0°F25.0°C 58.1°F14.5°C 52% 9.2 mph N14.8 kmh N 18.3 mph29.5 kmh 30.22 in1023.4 mb 0.00 in0.0 mm 0.00 in0.0 mm 0.00 in0.0 mm
12:20 PM 77.2°F25.1°C 56.6°F13.7°C 49% 9.5 mph N15.3 kmh N 21.3 mph34.3 kmh 30.22 in1023.4 mb 0.00 in0.0 mm 0.00 in0.0 mm 0.00 in0.0 mm
12:15 PM 77.0°F25.0°C 56.4°F13.6°C 49% 10.2 mph N16.4 kmh N 21.3 mph34.3 kmh 30.22 in1023.4 mb 0.00 in0.0 mm 0.00 in0.0 mm 0.00 in0.0 mm
12:10 PM 77.0°F25.0°C 57.5°F14.2°C 51% 8.6 mph NNE13.8 kmh NNE 19.0 mph30.6 kmh 30.22 in1023.4 mb 0.00 in0.0 mm 0.00 in0.0 mm 0.00 in0.0 mm
12:05 PM 77.0°F25.0°C 57.5°F14.2°C 51% 8.5 mph NNE13.7 kmh NNE 17.4 mph28.0 kmh 30.22 in1023.4 mb 0.00 in0.0 mm 0.00 in0.0 mm 0.00 in0.0 mm
12:00 PM 76.8°F24.9°C 57.4°F14.1°C 51% 8.7 mph N14.0 kmh N 22.1 mph35.6 kmh 30.22 in1023.4 mb 0.00 in0.0 mm 0.00 in0.0 mm 0.00 in0.0 mm
11:55 AM 77.0°F25.0°C 57.5°F14.2°C 51% 8.4 mph NNE13.5 kmh NNE 22.1 mph35.6 kmh 30.22 in1023.4 mb 0.00 in0.0 mm 0.00 in0.0 mm 0.00 in0.0 mm
11:50 AM 76.6°F24.8°C 58.3°F14.6°C 53% 8.8 mph NNE14.2 kmh NNE 19.0 mph30.6 kmh 30.22 in1023.4 mb 0.00 in0.0 mm 0.00 in0.0 mm 0.00 in0.0 mm
11:45 AM 76.3°F24.6°C 58.5°F14.7°C 54% 9.2 mph N14.8 kmh N 18.3 mph29.5 kmh 30.22 in1023.4 mb 0.00 in0.0 mm 0.00 in0.0 mm 0.00 in0.0 mm
11:40 AM 76.1°F24.5°C 59.3°F15.2°C 56% 9.8 mph N15.8 kmh N 18.3 mph29.5 kmh 30.22 in1023.4 mb 0.00 in0.0 mm 0.00 in0.0 mm 0.00 in0.0 mm
11:35 AM 75.7°F24.3°C 59.0°F15.0°C 56% 9.1 mph N14.6 kmh N 19.0 mph30.6 kmh 30.22 in1023.4 mb 0.00 in0.0 mm 0.00 in0.0 mm 0.00 in0.0 mm
11:30 AM 75.9°F24.4°C 59.6°F15.3°C 57% 8.6 mph N13.8 kmh N 19.0 mph30.6 kmh 30.23 in1023.7 mb 0.00 in0.0 mm 0.00 in0.0 mm 0.00 in0.0 mm
11:25 AM 75.7°F24.3°C 59.9°F15.5°C 58% 8.5 mph N13.7 kmh N 19.0 mph30.6 kmh 30.23 in1023.7 mb 0.00 in0.0 mm 0.00 in0.0 mm 0.00 in0.0 mm
11:20 AM 75.2°F24.0°C 60.4°F15.8°C 60% 8.7 mph NNW14.0 kmh NNW 19.7 mph31.7 kmh 30.23 in1023.7 mb 0.00 in0.0 mm 0.00 in0.0 mm 0.00 in0.0 mm
11:15 AM 75.0°F23.9°C 59.8°F15.4°C 59% 9.4 mph N15.1 kmh N 19.7 mph31.7 kmh 30.23 in1023.7 mb 0.00 in0.0 mm 0.00 in0.0 mm 0.00 in0.0 mm
11:10 AM 75.4°F24.1°C 60.1°F15.6°C 59% 9.1 mph N14.6 kmh N 19.7 mph31.7 kmh 30.23 in1023.7 mb 0.00 in0.0 mm 0.00 in0.0 mm 0.00 in0.0 mm
11:05 AM 75.2°F24.0°C 59.9°F15.5°C 59% 8.3 mph N13.4 kmh N 19.7 mph31.7 kmh 30.23 in1023.7 mb 0.00 in0.0 mm 0.00 in0.0 mm 0.00 in0.0 mm
11:00 AM 75.2°F24.0°C 60.4°F15.8°C 60% 7.0 mph NNW11.3 kmh NNW 17.4 mph28.0 kmh 30.23 in1023.7 mb 0.00 in0.0 mm 0.00 in0.0 mm 0.00 in0.0 mm
10:55 AM 74.8°F23.8°C 60.5°F15.8°C 61% 7.2 mph NW11.6 kmh NW 15.9 mph25.6 kmh 30.23 in1023.7 mb 0.00 in0.0 mm 0.00 in0.0 mm 0.00 in0.0 mm
10:50 AM 74.7°F23.7°C 60.4°F15.8°C 61% 8.6 mph NNW13.8 kmh NNW 15.9 mph25.6 kmh 30.23 in1023.7 mb 0.00 in0.0 mm 0.00 in0.0 mm 0.00 in0.0 mm
10:45 AM 74.7°F23.7°C 60.4°F15.8°C 61% 8.7 mph N14.0 kmh N 18.3 mph29.5 kmh 30.23 in1023.7 mb 0.00 in0.0 mm 0.00 in0.0 mm 0.00 in0.0 mm
10:40 AM 74.8°F23.8°C 61.0°F16.1°C 62% 8.5 mph N13.7 kmh N 18.3 mph29.5 kmh 30.23 in1023.7 mb 0.00 in0.0 mm 0.00 in0.0 mm 0.00 in0.0 mm
10:35 AM 74.7°F23.7°C 60.8°F16.0°C 62% 8.0 mph N12.9 kmh N 17.4 mph28.0 kmh 30.24 in1024.0 mb 0.00 in0.0 mm 0.00 in0.0 mm 0.00 in0.0 mm
10:30 AM 74.5°F23.6°C 61.1°F16.2°C 63% 7.0 mph N11.3 kmh N 17.4 mph28.0 kmh 30.24 in1024.0 mb 0.00 in0.0 mm 0.00 in0.0 mm 0.00 in0.0 mm
10:25 AM 74.3°F23.5°C 61.4°F16.3°C 64% 7.1 mph N11.4 kmh N 15.9 mph25.6 kmh 30.24 in1024.0 mb 0.00 in0.0 mm 0.00 in0.0 mm 0.00 in0.0 mm
10:20 AM 73.8°F23.2°C 61.3°F16.3°C 65% 8.4 mph NNW13.5 kmh NNW 15.9 mph25.6 kmh 30.24 in1024.0 mb 0.00 in0.0 mm 0.00 in0.0 mm 0.00 in0.0 mm
10:15 AM 73.4°F23.0°C 61.0°F16.1°C 65% 8.7 mph NNW14.0 kmh NNW 19.7 mph31.7 kmh 30.24 in1024.0 mb 0.00 in0.0 mm 0.00 in0.0 mm 0.00 in0.0 mm
10:10 AM 73.4°F23.0°C 61.8°F16.6°C 67% 7.4 mph NNW11.9 kmh NNW 19.7 mph31.7 kmh 30.23 in1023.7 mb 0.00 in0.0 mm 0.00 in0.0 mm 0.00 in0.0 mm
10:05 AM 73.4°F23.0°C 62.2°F16.8°C 68% 7.1 mph NNW11.4 kmh NNW 16.8 mph27.0 kmh 30.24 in1024.0 mb 0.00 in0.0 mm 0.00 in0.0 mm 0.00 in0.0 mm
10:00 AM 73.2°F22.9°C 62.1°F16.7°C 68% 8.2 mph NNW13.2 kmh NNW 16.8 mph27.0 kmh 30.23 in1023.7 mb 0.00 in0.0 mm 0.00 in0.0 mm 0.00 in0.0 mm
09:55 AM 73.2°F22.9°C 61.6°F16.4°C 67% 9.2 mph N14.8 kmh N 16.8 mph27.0 kmh 30.23 in1023.7 mb 0.00 in0.0 mm 0.00 in0.0 mm 0.00 in0.0 mm
09:50 AM 72.9°F22.7°C 61.3°F16.3°C 67% 9.2 mph N14.8 kmh N 16.8 mph27.0 kmh 30.23 in1023.7 mb 0.00 in0.0 mm 0.00 in0.0 mm 0.00 in0.0 mm
09:45 AM 73.0°F22.8°C 62.3°F16.8°C 69% 8.3 mph NNW13.4 kmh NNW 17.4 mph28.0 kmh 30.23 in1023.7 mb 0.00 in0.0 mm 0.00 in0.0 mm 0.00 in0.0 mm
09:40 AM 73.2°F22.9°C 62.5°F16.9°C 69% 7.3 mph NNW11.7 kmh NNW 17.4 mph28.0 kmh 30.24 in1024.0 mb 0.00 in0.0 mm 0.00 in0.0 mm 0.00 in0.0 mm
09:35 AM 73.2°F22.9°C 62.1°F16.7°C 68% 6.9 mph NNW11.1 kmh NNW 15.2 mph24.5 kmh 30.23 in1023.7 mb 0.00 in0.0 mm 0.00 in0.0 mm 0.00 in0.0 mm
09:30 AM 72.9°F22.7°C 61.3°F16.3°C 67% 7.3 mph NNW11.7 kmh NNW 14.5 mph23.3 kmh 30.23 in1023.7 mb 0.00 in0.0 mm 0.00 in0.0 mm 0.00 in0.0 mm
09:25 AM 72.5°F22.5°C 61.4°F16.3°C 68% 8.1 mph N13.0 kmh N 17.4 mph28.0 kmh 30.23 in1023.7 mb 0.00 in0.0 mm 0.00 in0.0 mm 0.00 in0.0 mm
09:20 AM 72.1°F22.3°C 61.4°F16.3°C 69% 7.6 mph N12.2 kmh N 17.4 mph28.0 kmh 30.23 in1023.7 mb 0.00 in0.0 mm 0.00 in0.0 mm 0.00 in0.0 mm
09:15 AM 71.8°F22.1°C 61.9°F16.6°C 71% 6.5 mph NNW10.5 kmh NNW 12.1 mph19.5 kmh 30.23 in1023.7 mb 0.00 in0.0 mm 0.00 in0.0 mm 0.00 in0.0 mm
09:10 AM 71.4°F21.9°C 62.0°F16.7°C 72% 6.5 mph N10.5 kmh N 15.2 mph24.5 kmh 30.23 in1023.7 mb 0.00 in0.0 mm 0.00 in0.0 mm 0.00 in0.0 mm
09:05 AM 70.9°F21.6°C 62.2°F16.8°C 74% 6.5 mph N10.5 kmh N 15.2 mph24.5 kmh 30.23 in1023.7 mb 0.00 in0.0 mm 0.00 in0.0 mm 0.00 in0.0 mm
09:00 AM 70.0°F21.1°C 62.5°F16.9°C 77% 4.9 mph NNW7.9 kmh NNW 13.0 mph20.9 kmh 30.23 in1023.7 mb 0.00 in0.0 mm 0.00 in0.0 mm 0.00 in0.0 mm
08:55 AM 68.4°F20.2°C 62.7°F17.1°C 82% 2.1 mph NW3.4 kmh NW 10.7 mph17.2 kmh 30.23 in1023.7 mb 0.00 in0.0 mm 0.00 in0.0 mm 0.00 in0.0 mm
08:50 AM 66.2°F19.0°C 60.9°F16.1°C 83% 1.0 mph SW1.6 kmh SW 4.5 mph7.2 kmh 30.23 in1023.7 mb 0.00 in0.0 mm 0.00 in0.0 mm 0.00 in0.0 mm
08:45 AM 65.7°F18.7°C 60.7°F15.9°C 84% 0.9 mph SW1.4 kmh SW 3.8 mph6.1 kmh 30.23 in1023.7 mb 0.00 in0.0 mm 0.00 in0.0 mm 0.00 in0.0 mm
08:40 AM 65.3°F18.5°C 60.7°F15.9°C 85% 1.2 mph SW1.9 kmh SW 3.8 mph6.1 kmh 30.23 in1023.7 mb 0.00 in0.0 mm 0.00 in0.0 mm 0.00 in0.0 mm
08:35 AM 64.6°F18.1°C 60.0°F15.6°C 85% 1.7 mph SSW2.7 kmh SSW 3.8 mph6.1 kmh 30.23 in1023.7 mb 0.00 in0.0 mm 0.00 in0.0 mm 0.00 in0.0 mm
08:30 AM 64.2°F17.9°C 60.3°F15.7°C 87% 1.4 mph SSW2.3 kmh SSW 3.8 mph6.1 kmh 30.23 in1023.7 mb 0.00 in0.0 mm 0.00 in0.0 mm 0.00 in0.0 mm
08:25 AM 63.7°F17.6°C 60.1°F15.6°C 88% 0.9 mph SW1.4 kmh SW 3.1 mph5.0 kmh 30.23 in1023.7 mb 0.00 in0.0 mm 0.00 in0.0 mm 0.00 in0.0 mm
08:20 AM 62.8°F17.1°C 59.5°F15.3°C 89% 1.2 mph SW1.9 kmh SW 4.5 mph7.2 kmh 30.23 in1023.7 mb 0.00 in0.0 mm 0.00 in0.0 mm 0.00 in0.0 mm
08:15 AM 62.1°F16.7°C 59.1°F15.1°C 90% 2.5 mph SW4.0 kmh SW 5.4 mph8.7 kmh 30.23 in1023.7 mb 0.00 in0.0 mm 0.00 in0.0 mm 0.00 in0.0 mm
08:10 AM 61.5°F16.4°C 58.6°F14.8°C 90% 3.6 mph SW5.8 kmh SW 6.9 mph11.1 kmh 30.24 in1024.0 mb 0.00 in0.0 mm 0.00 in0.0 mm 0.00 in0.0 mm
08:05 AM 61.5°F16.4°C 58.3°F14.6°C 89% 3.9 mph SW6.3 kmh SW 8.3 mph13.4 kmh 30.24 in1024.0 mb 0.00 in0.0 mm 0.00 in0.0 mm 0.00 in0.0 mm
08:00 AM 61.7°F16.5°C 58.8°F14.9°C 90% 3.4 mph SW5.5 kmh SW 8.3 mph13.4 kmh 30.24 in1024.0 mb 0.00 in0.0 mm 0.00 in0.0 mm 0.00 in0.0 mm
07:55 AM 61.9°F16.6°C 58.9°F14.9°C 90% 2.9 mph SW4.7 kmh SW 6.0 mph9.7 kmh 30.24 in1024.0 mb 0.00 in0.0 mm 0.00 in0.0 mm 0.00 in0.0 mm
07:50 AM 61.7°F16.5°C 58.8°F14.9°C 90% 2.2 mph WSW3.5 kmh WSW 5.4 mph8.7 kmh 30.23 in1023.7 mb 0.00 in0.0 mm 0.00 in0.0 mm 0.00 in0.0 mm
07:45 AM 61.5°F16.4°C 58.9°F14.9°C 91% 1.4 mph W2.3 kmh W 4.5 mph7.2 kmh 30.23 in1023.7 mb 0.00 in0.0 mm 0.00 in0.0 mm 0.00 in0.0 mm
07:40 AM 61.0°F16.1°C 58.7°F14.8°C 92% 1.4 mph W2.3 kmh W 3.8 mph6.1 kmh 30.23 in1023.7 mb 0.00 in0.0 mm 0.00 in0.0 mm 0.00 in0.0 mm
07:35 AM 60.6°F15.9°C 58.3°F14.6°C 92% 1.8 mph W2.9 kmh W 5.4 mph8.7 kmh 30.23 in1023.7 mb 0.00 in0.0 mm 0.00 in0.0 mm 0.00 in0.0 mm
07:30 AM 60.3°F15.7°C 57.9°F14.4°C 92% 2.2 mph W3.5 kmh W 5.4 mph8.7 kmh 30.23 in1023.7 mb 0.00 in0.0 mm 0.00 in0.0 mm 0.00 in0.0 mm
07:25 AM 60.3°F15.7°C 57.9°F14.4°C 92% 2.2 mph WNW3.5 kmh WNW 5.4 mph8.7 kmh 30.23 in1023.7 mb 0.00 in0.0 mm 0.00 in0.0 mm 0.00 in0.0 mm
07:20 AM 60.1°F15.6°C 58.1°F14.5°C 93% 2.0 mph WNW3.2 kmh WNW 5.4 mph8.7 kmh 30.23 in1023.7 mb 0.00 in0.0 mm 0.00 in0.0 mm 0.00 in0.0 mm
07:15 AM 59.9°F15.5°C 57.9°F14.4°C 93% 1.9 mph W3.1 kmh W 4.5 mph7.2 kmh 30.23 in1023.7 mb 0.00 in0.0 mm 0.00 in0.0 mm 0.00 in0.0 mm
07:10 AM 59.5°F15.3°C 57.5°F14.2°C 93% 2.1 mph SW3.4 kmh SW 4.5 mph7.2 kmh 30.22 in1023.4 mb 0.00 in0.0 mm 0.00 in0.0 mm 0.00 in0.0 mm
07:05 AM 59.2°F15.1°C 57.2°F14.0°C 93% 1.7 mph SW2.7 kmh SW 4.5 mph7.2 kmh 30.22 in1023.4 mb 0.00 in0.0 mm 0.00 in0.0 mm 0.00 in0.0 mm
07:00 AM 59.2°F15.1°C 56.9°F13.8°C 92% 1.6 mph SW2.6 kmh SW 4.5 mph7.2 kmh 30.22 in1023.4 mb 0.00 in0.0 mm 0.00 in0.0 mm 0.00 in0.0 mm
06:55 AM 59.4°F15.2°C 57.0°F13.9°C 92% 1.9 mph SW3.1 kmh SW 4.5 mph7.2 kmh 30.22 in1023.4 mb 0.00 in0.0 mm 0.00 in0.0 mm 0.00 in0.0 mm
06:50 AM 59.7°F15.4°C 57.4°F14.1°C 92% 2.2 mph WSW3.5 kmh WSW 5.4 mph8.7 kmh 30.22 in1023.4 mb 0.00 in0.0 mm 0.00 in0.0 mm 0.00 in0.0 mm
06:45 AM 59.7°F15.4°C 57.4°F14.1°C 92% 2.2 mph WSW3.5 kmh WSW 5.4 mph8.7 kmh 30.22 in1023.4 mb 0.00 in0.0 mm 0.00 in0.0 mm 0.00 in0.0 mm
06:40 AM 59.5°F15.3°C 57.5°F14.2°C 93% 1.5 mph WSW2.4 kmh WSW 3.8 mph6.1 kmh 30.22 in1023.4 mb 0.00 in0.0 mm 0.00 in0.0 mm 0.00 in0.0 mm
06:35 AM 59.4°F15.2°C 57.3°F14.1°C 93% 1.1 mph WSW1.8 kmh WSW 3.8 mph6.1 kmh 30.22 in1023.4 mb 0.00 in0.0 mm 0.00 in0.0 mm 0.00 in0.0 mm
06:30 AM 59.2°F15.1°C 57.2°F14.0°C 93% 1.0 mph WSW1.6 kmh WSW 3.1 mph5.0 kmh 30.21 in1023.0 mb 0.00 in0.0 mm 0.00 in0.0 mm 0.00 in0.0 mm
06:25 AM 59.2°F15.1°C 57.2°F14.0°C 93% 1.5 mph SW2.4 kmh SW 3.1 mph5.0 kmh 30.22 in1023.4 mb 0.00 in0.0 mm 0.00 in0.0 mm 0.00 in0.0 mm
06:20 AM 58.8°F14.9°C 56.8°F13.8°C 93% 1.8 mph WSW2.9 kmh WSW 4.5 mph7.2 kmh 30.22 in1023.4 mb 0.00 in0.0 mm 0.00 in0.0 mm 0.00 in0.0 mm
06:15 AM 58.6°F14.8°C 56.9°F13.8°C 94% 1.8 mph WSW2.9 kmh WSW 4.5 mph7.2 kmh 30.22 in1023.4 mb 0.00 in0.0 mm 0.00 in0.0 mm 0.00 in0.0 mm
06:10 AM 58.5°F14.7°C 56.5°F13.6°C 93% 2.0 mph SW3.2 kmh SW 5.4 mph8.7 kmh 30.22 in1023.4 mb 0.00 in0.0 mm 0.00 in0.0 mm 0.00 in0.0 mm
06:05 AM 58.5°F14.7°C 56.8°F13.8°C 94% 2.0 mph SW3.2 kmh SW 5.4 mph8.7 kmh 30.22 in1023.4 mb 0.00 in0.0 mm 0.00 in0.0 mm 0.00 in0.0 mm
06:00 AM 58.3°F14.6°C 56.6°F13.7°C 94% 1.8 mph SW2.9 kmh SW 4.5 mph7.2 kmh 30.22 in1023.4 mb 0.00 in0.0 mm 0.00 in0.0 mm 0.00 in0.0 mm
05:55 AM 58.1°F14.5°C 56.4°F13.6°C 94% 1.9 mph SW3.1 kmh SW 4.5 mph7.2 kmh 30.22 in1023.4 mb 0.00 in0.0 mm 0.00 in0.0 mm 0.00 in0.0 mm
05:50 AM 57.7°F14.3°C 55.7°F13.2°C 93% 2.2 mph SW3.5 kmh SW 5.4 mph8.7 kmh 30.22 in1023.4 mb 0.00 in0.0 mm 0.00 in0.0 mm 0.00 in0.0 mm
05:45 AM 57.7°F14.3°C 55.4°F13.0°C 92% 2.1 mph SW3.4 kmh SW 5.4 mph8.7 kmh 30.22 in1023.4 mb 0.00 in0.0 mm 0.00 in0.0 mm 0.00 in0.0 mm
05:40 AM 58.6°F14.8°C 56.3°F13.5°C 92% 1.7 mph SW2.7 kmh SW 5.4 mph8.7 kmh 30.22 in1023.4 mb 0.00 in0.0 mm 0.00 in0.0 mm 0.00 in0.0 mm
05:35 AM 59.0°F15.0°C 57.0°F13.9°C 93% 2.3 mph WSW3.7 kmh WSW 6.0 mph9.7 kmh 30.22 in1023.4 mb 0.00 in0.0 mm 0.00 in0.0 mm 0.00 in0.0 mm
05:30 AM 59.2°F15.1°C 57.2°F14.0°C 93% 2.7 mph W4.3 kmh W 6.0 mph9.7 kmh 30.22 in1023.4 mb 0.00 in0.0 mm 0.00 in0.0 mm 0.00 in0.0 mm
05:25 AM 59.0°F15.0°C 57.0°F13.9°C 93% 2.0 mph W3.2 kmh W 6.0 mph9.7 kmh 30.22 in1023.4 mb 0.00 in0.0 mm 0.00 in0.0 mm 0.00 in0.0 mm
05:20 AM 59.0°F15.0°C 56.7°F13.7°C 92% 1.2 mph WSW1.9 kmh WSW 4.5 mph7.2 kmh 30.22 in1023.4 mb 0.00 in0.0 mm 0.00 in0.0 mm 0.00 in0.0 mm
05:15 AM 59.2°F15.1°C 57.2°F14.0°C 93% 0.8 mph WSW1.3 kmh WSW 3.1 mph5.0 kmh 30.22 in1023.4 mb 0.00 in0.0 mm 0.00 in0.0 mm 0.00 in0.0 mm
05:10 AM 59.2°F15.1°C 57.2°F14.0°C 93% 0.8 mph W1.3 kmh W 3.8 mph6.1 kmh 30.22 in1023.4 mb 0.00 in0.0 mm 0.00 in0.0 mm 0.00 in0.0 mm
05:05 AM 59.2°F15.1°C 57.2°F14.0°C 93% 1.6 mph W2.6 kmh W 4.5 mph7.2 kmh 30.22 in1023.4 mb 0.00 in0.0 mm 0.00 in0.0 mm 0.00 in0.0 mm
05:00 AM 58.6°F14.8°C 56.6°F13.7°C 93% 1.8 mph WSW2.9 kmh WSW 4.5 mph7.2 kmh 30.22 in1023.4 mb 0.00 in0.0 mm 0.00 in0.0 mm 0.00 in0.0 mm
04:55 AM 58.5°F14.7°C 56.2°F13.4°C 92% 1.0 mph SW1.6 kmh SW 4.5 mph7.2 kmh 30.22 in1023.4 mb 0.00 in0.0 mm 0.00 in0.0 mm 0.00 in0.0 mm
04:50 AM 58.6°F14.8°C 56.0°F13.3°C 91% 0.4 mph S0.6 kmh S 3.1 mph5.0 kmh 30.22 in1023.4 mb 0.00 in0.0 mm 0.00 in0.0 mm 0.00 in0.0 mm
04:45 AM 59.0°F15.0°C 56.4°F13.6°C 91% 0.5 mph SW0.8 kmh SW 3.8 mph6.1 kmh 30.22 in1023.4 mb 0.00 in0.0 mm 0.00 in0.0 mm 0.00 in0.0 mm
04:40 AM 59.4°F15.2°C 56.7°F13.7°C 91% 1.1 mph SW1.8 kmh SW 3.8 mph6.1 kmh 30.22 in1023.4 mb 0.00 in0.0 mm 0.00 in0.0 mm 0.00 in0.0 mm
04:35 AM 59.5°F15.3°C 56.9°F13.8°C 91% 1.5 mph SW2.4 kmh SW 4.5 mph7.2 kmh 30.22 in1023.4 mb 0.00 in0.0 mm 0.00 in0.0 mm 0.00 in0.0 mm
04:30 AM 59.5°F15.3°C 56.9°F13.8°C 91% 1.2 mph WSW1.9 kmh WSW 4.5 mph7.2 kmh 30.22 in1023.4 mb 0.00 in0.0 mm 0.00 in0.0 mm 0.00 in0.0 mm
04:25 AM 59.5°F15.3°C 56.9°F13.8°C 91% 1.0 mph W1.6 kmh W 3.8 mph6.1 kmh 30.22 in1023.4 mb 0.00 in0.0 mm 0.00 in0.0 mm 0.00 in0.0 mm
04:20 AM 59.5°F15.3°C 56.9°F13.8°C 91% 1.2 mph SW1.9 kmh SW 4.5 mph7.2 kmh 30.22 in1023.4 mb 0.00 in0.0 mm 0.00 in0.0 mm 0.00 in0.0 mm
04:15 AM 59.5°F15.3°C 56.9°F13.8°C 91% 1.8 mph SW2.9 kmh SW 6.9 mph11.1 kmh 30.22 in1023.4 mb 0.00 in0.0 mm 0.00 in0.0 mm 0.00 in0.0 mm
04:10 AM 59.4°F15.2°C 57.0°F13.9°C 92% 2.0 mph W3.2 kmh W 6.9 mph11.1 kmh 30.22 in1023.4 mb 0.00 in0.0 mm 0.00 in0.0 mm 0.00 in0.0 mm
04:05 AM 59.0°F15.0°C 56.7°F13.7°C 92% 2.0 mph W3.2 kmh W 4.5 mph7.2 kmh 30.22 in1023.4 mb 0.00 in0.0 mm 0.00 in0.0 mm 0.00 in0.0 mm
04:00 AM 58.8°F14.9°C 56.5°F13.6°C 92% 2.2 mph SW3.5 kmh SW 4.5 mph7.2 kmh 30.22 in1023.4 mb 0.00 in0.0 mm 0.00 in0.0 mm 0.00 in0.0 mm
03:55 AM 58.6°F14.8°C 56.0°F13.3°C 91% 2.3 mph SW3.7 kmh SW 5.4 mph8.7 kmh 30.22 in1023.4 mb 0.00 in0.0 mm 0.00 in0.0 mm 0.00 in0.0 mm
03:50 AM 58.5°F14.7°C 56.2°F13.4°C 92% 2.1 mph SW3.4 kmh SW 5.4 mph8.7 kmh 30.22 in1023.4 mb 0.00 in0.0 mm 0.00 in0.0 mm 0.00 in0.0 mm
03:45 AM 58.3°F14.6°C 55.7°F13.2°C 91% 2.4 mph SW3.9 kmh SW 6.0 mph9.7 kmh 30.22 in1023.4 mb 0.00 in0.0 mm 0.00 in0.0 mm 0.00 in0.0 mm
03:40 AM 58.1°F14.5°C 55.5°F13.1°C 91% 3.7 mph SW6.0 kmh SW 6.0 mph9.7 kmh 30.22 in1023.4 mb 0.00 in0.0 mm 0.00 in0.0 mm 0.00 in0.0 mm
03:35 AM 58.5°F14.7°C 55.9°F13.3°C 91% 3.8 mph SSW6.1 kmh SSW 6.0 mph9.7 kmh 30.22 in1023.4 mb 0.00 in0.0 mm 0.00 in0.0 mm 0.00 in0.0 mm
03:30 AM 58.8°F14.9°C 56.2°F13.4°C 91% 3.5 mph SW5.6 kmh SW 6.9 mph11.1 kmh 30.22 in1023.4 mb 0.00 in0.0 mm 0.00 in0.0 mm 0.00 in0.0 mm
03:25 AM 59.0°F15.0°C 56.4°F13.6°C 91% 3.3 mph SW5.3 kmh SW 6.9 mph11.1 kmh 30.22 in1023.4 mb 0.00 in0.0 mm 0.00 in0.0 mm 0.00 in0.0 mm
03:20 AM 58.8°F14.9°C 56.2°F13.4°C 91% 2.5 mph SW4.0 kmh SW 6.0 mph9.7 kmh 30.22 in1023.4 mb 0.00 in0.0 mm 0.00 in0.0 mm 0.00 in0.0 mm
03:15 AM 58.8°F14.9°C 56.2°F13.4°C 91% 2.1 mph SW3.4 kmh SW 5.4 mph8.7 kmh 30.22 in1023.4 mb 0.00 in0.0 mm 0.00 in0.0 mm 0.00 in0.0 mm
03:10 AM 58.6°F14.8°C 55.7°F13.2°C 90% 2.2 mph SW3.5 kmh SW 4.5 mph7.2 kmh 30.22 in1023.4 mb 0.00 in0.0 mm 0.00 in0.0 mm 0.00 in0.0 mm
03:05 AM 58.8°F14.9°C 55.9°F13.3°C 90% 2.3 mph WSW3.7 kmh WSW 5.4 mph8.7 kmh 30.22 in1023.4 mb 0.00 in0.0 mm 0.00 in0.0 mm 0.00 in0.0 mm
03:00 AM 59.0°F15.0°C 56.1°F13.4°C 90% 2.2 mph WSW3.5 kmh WSW 5.4 mph8.7 kmh 30.22 in1023.4 mb 0.00 in0.0 mm 0.00 in0.0 mm 0.00 in0.0 mm
02:55 AM 59.2°F15.1°C 56.3°F13.5°C 90% 1.5 mph SW2.4 kmh SW 5.4 mph8.7 kmh 30.22 in1023.4 mb 0.00 in0.0 mm 0.00 in0.0 mm 0.00 in0.0 mm
02:50 AM 59.4°F15.2°C 56.4°F13.6°C 90% 2.0 mph SSW3.2 kmh SSW 5.4 mph8.7 kmh 30.22 in1023.4 mb 0.00 in0.0 mm 0.00 in0.0 mm 0.00 in0.0 mm
02:45 AM 59.4°F15.2°C 56.7°F13.7°C 91% 2.6 mph SW4.2 kmh SW 6.0 mph9.7 kmh 30.22 in1023.4 mb 0.00 in0.0 mm 0.00 in0.0 mm 0.00 in0.0 mm
02:40 AM 59.4°F15.2°C 56.7°F13.7°C 91% 2.7 mph WSW4.3 kmh WSW 6.0 mph9.7 kmh 30.22 in1023.4 mb 0.00 in0.0 mm 0.00 in0.0 mm 0.00 in0.0 mm
02:35 AM 59.2°F15.1°C 56.6°F13.7°C 91% 2.3 mph WSW3.7 kmh WSW 6.0 mph9.7 kmh 30.22 in1023.4 mb 0.00 in0.0 mm 0.00 in0.0 mm 0.00 in0.0 mm
02:30 AM 59.0°F15.0°C 56.4°F13.6°C 91% 1.7 mph SW2.7 kmh SW 4.5 mph7.2 kmh 30.22 in1023.4 mb 0.00 in0.0 mm 0.00 in0.0 mm 0.00 in0.0 mm
02:25 AM 59.0°F15.0°C 56.4°F13.6°C 91% 1.6 mph SW2.6 kmh SW 4.5 mph7.2 kmh 30.22 in1023.4 mb 0.00 in0.0 mm 0.00 in0.0 mm 0.00 in0.0 mm
02:20 AM 59.2°F15.1°C 56.6°F13.7°C 91% 1.8 mph SW2.9 kmh SW 5.4 mph8.7 kmh 30.22 in1023.4 mb 0.00 in0.0 mm 0.00 in0.0 mm 0.00 in0.0 mm
02:15 AM 59.4°F15.2°C 56.7°F13.7°C 91% 1.8 mph SW2.9 kmh SW 5.4 mph8.7 kmh 30.22 in1023.4 mb 0.00 in0.0 mm 0.00 in0.0 mm 0.00 in0.0 mm
02:10 AM 59.4°F15.2°C 56.7°F13.7°C 91% 1.1 mph W1.8 kmh W 3.8 mph6.1 kmh 30.22 in1023.4 mb 0.00 in0.0 mm 0.00 in0.0 mm 0.00 in0.0 mm
02:05 AM 59.2°F15.1°C 56.3°F13.5°C 90% 1.0 mph W1.6 kmh W 3.8 mph6.1 kmh 30.22 in1023.4 mb 0.00 in0.0 mm 0.00 in0.0 mm 0.00 in0.0 mm
02:00 AM 59.4°F15.2°C 56.4°F13.6°C 90% 0.7 mph SW1.1 kmh SW 3.1 mph5.0 kmh 30.22 in1023.4 mb 0.00 in0.0 mm 0.00 in0.0 mm 0.00 in0.0 mm
01:55 AM 59.5°F15.3°C 56.6°F13.7°C 90% 1.1 mph WSW1.8 kmh WSW 3.8 mph6.1 kmh 30.22 in1023.4 mb 0.00 in0.0 mm 0.00 in0.0 mm 0.00 in0.0 mm
01:50 AM 59.4°F15.2°C 56.4°F13.6°C 90% 2.1 mph WSW3.4 kmh WSW 6.0 mph9.7 kmh 30.23 in1023.7 mb 0.00 in0.0 mm 0.00 in0.0 mm 0.00 in0.0 mm
01:45 AM 59.2°F15.1°C 56.3°F13.5°C 90% 2.7 mph WSW4.3 kmh WSW 7.6 mph12.2 kmh 30.23 in1023.7 mb 0.00 in0.0 mm 0.00 in0.0 mm 0.00 in0.0 mm
01:40 AM 58.8°F14.9°C 55.9°F13.3°C 90% 2.8 mph WSW4.5 kmh WSW 7.6 mph12.2 kmh 30.23 in1023.7 mb 0.00 in0.0 mm 0.00 in0.0 mm 0.00 in0.0 mm
01:35 AM 58.1°F14.5°C 54.3°F12.4°C 87% 2.2 mph SW3.5 kmh SW 6.9 mph11.1 kmh 30.23 in1023.7 mb 0.00 in0.0 mm 0.00 in0.0 mm 0.00 in0.0 mm
01:30 AM 58.8°F14.9°C 54.7°F12.6°C 86% 2.5 mph SW4.0 kmh SW 7.6 mph12.2 kmh 30.23 in1023.7 mb 0.00 in0.0 mm 0.00 in0.0 mm 0.00 in0.0 mm
01:25 AM 59.5°F15.3°C 55.4°F13.0°C 86% 2.7 mph SW4.3 kmh SW 7.6 mph12.2 kmh 30.23 in1023.7 mb 0.00 in0.0 mm 0.00 in0.0 mm 0.00 in0.0 mm
01:20 AM 59.7°F15.4°C 55.5°F13.1°C 86% 1.8 mph WSW2.9 kmh WSW 6.0 mph9.7 kmh 30.22 in1023.4 mb 0.00 in0.0 mm 0.00 in0.0 mm 0.00 in0.0 mm
01:15 AM 59.7°F15.4°C 55.5°F13.1°C 86% 1.2 mph W1.9 kmh W 4.5 mph7.2 kmh 30.23 in1023.7 mb 0.00 in0.0 mm 0.00 in0.0 mm 0.00 in0.0 mm
01:10 AM 59.5°F15.3°C 55.0°F12.8°C 85% 1.6 mph SW2.6 kmh SW 4.5 mph7.2 kmh 30.22 in1023.4 mb 0.00 in0.0 mm 0.00 in0.0 mm 0.00 in0.0 mm
01:05 AM 59.7°F15.4°C 54.9°F12.7°C 84% 2.1 mph WSW3.4 kmh WSW 5.4 mph8.7 kmh 30.23 in1023.7 mb 0.00 in0.0 mm 0.00 in0.0 mm 0.00 in0.0 mm
01:00 AM 60.1°F15.6°C 55.2°F12.9°C 84% 2.3 mph WSW3.7 kmh WSW 5.4 mph8.7 kmh 30.23 in1023.7 mb 0.00 in0.0 mm 0.00 in0.0 mm 0.00 in0.0 mm
12:55 AM 60.1°F15.6°C 55.6°F13.1°C 85% 1.9 mph WSW3.1 kmh WSW 5.4 mph8.7 kmh 30.23 in1023.7 mb 0.00 in0.0 mm 0.00 in0.0 mm 0.00 in0.0 mm
12:50 AM 59.9°F15.5°C 55.4°F13.0°C 85% 1.5 mph WSW2.4 kmh WSW 4.5 mph7.2 kmh 30.22 in1023.4 mb 0.00 in0.0 mm 0.00 in0.0 mm 0.00 in0.0 mm
12:45 AM 59.4°F15.2°C 55.5°F13.1°C 87% 1.3 mph WSW2.1 kmh WSW 4.5 mph7.2 kmh 30.22 in1023.4 mb 0.00 in0.0 mm 0.00 in0.0 mm 0.00 in0.0 mm
12:40 AM 58.6°F14.8°C 55.1°F12.8°C 88% 1.0 mph W1.6 kmh W 3.8 mph6.1 kmh 30.22 in1023.4 mb 0.00 in0.0 mm 0.00 in0.0 mm 0.00 in0.0 mm
12:35 AM 58.1°F14.5°C 54.6°F12.6°C 88% 0.6 mph WSW1.0 kmh WSW 3.8 mph6.1 kmh 30.23 in1023.7 mb 0.00 in0.0 mm 0.00 in0.0 mm 0.00 in0.0 mm
12:30 AM 58.1°F14.5°C 54.3°F12.4°C 87% 0.3 mph SE0.5 kmh SE 2.2 mph3.5 kmh 30.23 in1023.7 mb 0.00 in0.0 mm 0.00 in0.0 mm 0.00 in0.0 mm
12:25 AM 58.3°F14.6°C 54.8°F12.7°C 88% 0.2 mph NNW0.3 kmh NNW 2.2 mph3.5 kmh 30.23 in1023.7 mb 0.00 in0.0 mm 0.00 in0.0 mm 0.00 in0.0 mm
12:20 AM 58.3°F14.6°C 54.4°F12.4°C 87% 0.7 mph W1.1 kmh W 3.8 mph6.1 kmh 30.22 in1023.4 mb 0.00 in0.0 mm 0.00 in0.0 mm 0.00 in0.0 mm
12:15 AM 58.6°F14.8°C 54.8°F12.7°C 87% 0.8 mph WSW1.3 kmh WSW 3.8 mph6.1 kmh 30.22 in1023.4 mb 0.00 in0.0 mm 0.00 in0.0 mm 0.00 in0.0 mm
12:10 AM 59.0°F15.0°C 54.8°F12.7°C 86% 0.3 mph W0.5 kmh W 2.2 mph3.5 kmh 30.22 in1023.4 mb 0.00 in0.0 mm 0.00 in0.0 mm 0.00 in0.0 mm
12:05 AM 59.5°F15.3°C 55.4°F13.0°C 86% 0.5 mph SW0.8 kmh SW 2.2 mph3.5 kmh 30.22 in1023.4 mb 0.00 in0.0 mm 0.00 in0.0 mm 0.00 in0.0 mm
12:00 AM 59.5°F15.3°C 55.4°F13.0°C 86% 0.7 mph SSW1.1 kmh SSW 2.2 mph3.5 kmh 30.22 in1023.4 mb 0.00 in0.0 mm 0.00 in0.0 mm 0.00 in0.0 mm